Manfred, North Dakota
Current Conditions -  °F | °C
As of 2:15 AM on Monday 24 Nov 2014 (Local Time) from K5H4 Reporting Station
Light Snow Light Snow  
Wind Chill: -10°   Ceiling: 900
Heat Index:   Visibility: 10mi
Dew Point:   Wind: 17mph
Humidity: 92%   Direction: 320°NW
Pressure: 29.71"   Gusts: 21mph
Location:  47.7822°N, 99.8441°W
Report Text: K5H4 240815Z AUTO 32015G18KT 10SM -SN SCT005 BKN009 BKN014 M13/M14 A2971 RMK AO2
Loading
Personal Weather Stations






























Interactive Weather Map New forecast layout! Learn more

10-Day Weather Forecast

Advertisements
Track Severe Weather on mobile